sensor_id;sensor_type;location;lat;lon;timestamp;P1;durP1;ratioP1;P2;durP2;ratioP2
10839;SDS011;5473;42.706;23.328;2022-09-09T00:00:53;0.20;;;0.20;;
10839;SDS011;5473;42.706;23.328;2022-09-09T00:03:26;0.27;;;0.27;;
10839;SDS011;5473;42.706;23.328;2022-09-09T00:05:59;0.30;;;0.30;;
10839;SDS011;5473;42.706;23.328;2022-09-09T00:08:38;0.30;;;0.30;;
10839;SDS011;5473;42.706;23.328;2022-09-09T00:11:12;0.23;;;0.23;;
10839;SDS011;5473;42.706;23.328;2022-09-09T00:13:44;0.20;;;0.20;;
10839;SDS011;5473;42.706;23.328;2022-09-09T00:16:15;0.20;;;0.20;;
10839;SDS011;5473;42.706;23.328;2022-09-09T00:18:54;0.20;;;0.20;;
10839;SDS011;5473;42.706;23.328;2022-09-09T00:21:28;0.30;;;0.30;;
10839;SDS011;5473;42.706;23.328;2022-09-09T00:24:00;0.20;;;0.20;;
10839;SDS011;5473;42.706;23.328;2022-09-09T00:26:35;0.30;;;0.30;;
10839;SDS011;5473;42.706;23.328;2022-09-09T00:29:12;0.20;;;0.20;;
10839;SDS011;5473;42.706;23.328;2022-09-09T00:31:44;0.20;;;0.20;;
10839;SDS011;5473;42.706;23.328;2022-09-09T00:34:12;0.30;;;0.30;;
10839;SDS011;5473;42.706;23.328;2022-09-09T00:36:41;0.30;;;0.30;;
10839;SDS011;5473;42.706;23.328;2022-09-09T00:39:12;0.30;;;0.30;;
10839;SDS011;5473;42.706;23.328;2022-09-09T00:41:55;0.30;;;0.30;;
10839;SDS011;5473;42.706;23.328;2022-09-09T00:44:35;0.20;;;0.20;;
10839;SDS011;5473;42.706;23.328;2022-09-09T00:47:09;0.30;;;0.30;;
10839;SDS011;5473;42.706;23.328;2022-09-09T00:49:47;0.30;;;0.30;;
10839;SDS011;5473;42.706;23.328;2022-09-09T00:52:30;0.30;;;0.30;;
10839;SDS011;5473;42.706;23.328;2022-09-09T00:55:05;0.23;;;0.23;;
10839;SDS011;5473;42.706;23.328;2022-09-09T00:57:40;0.30;;;0.30;;
10839;SDS011;5473;42.706;23.328;2022-09-09T01:00:17;0.20;;;0.20;;
10839;SDS011;5473;42.706;23.328;2022-09-09T01:02:53;0.30;;;0.30;;
10839;SDS011;5473;42.706;23.328;2022-09-09T01:05:30;0.30;;;0.30;;
10839;SDS011;5473;42.706;23.328;2022-09-09T01:08:03;0.30;;;0.30;;
10839;SDS011;5473;42.706;23.328;2022-09-09T01:10:41;0.20;;;0.20;;
10839;SDS011;5473;42.706;23.328;2022-09-09T01:13:15;0.30;;;0.30;;
10839;SDS011;5473;42.706;23.328;2022-09-09T01:15:48;0.30;;;0.30;;
10839;SDS011;5473;42.706;23.328;2022-09-09T01:18:17;0.30;;;0.30;;
10839;SDS011;5473;42.706;23.328;2022-09-09T01:20:49;0.30;;;0.30;;
10839;SDS011;5473;42.706;23.328;2022-09-09T01:23:36;0.30;;;0.30;;
10839;SDS011;5473;42.706;23.328;2022-09-09T01:26:19;0.30;;;0.30;;
10839;SDS011;5473;42.706;23.328;2022-09-09T01:28:51;0.30;;;0.30;;
10839;SDS011;5473;42.706;23.328;2022-09-09T01:31:19;0.30;;;0.30;;
10839;SDS011;5473;42.706;23.328;2022-09-09T01:33:49;0.20;;;0.20;;
10839;SDS011;5473;42.706;23.328;2022-09-09T01:36:21;0.20;;;0.20;;
10839;SDS011;5473;42.706;23.328;2022-09-09T01:38:56;0.30;;;0.30;;
10839;SDS011;5473;42.706;23.328;2022-09-09T01:41:24;0.20;;;0.20;;
10839;SDS011;5473;42.706;23.328;2022-09-09T01:43:52;0.30;;;0.30;;
10839;SDS011;5473;42.706;23.328;2022-09-09T01:46:19;0.30;;;0.30;;
10839;SDS011;5473;42.706;23.328;2022-09-09T01:48:48;0.20;;;0.20;;
10839;SDS011;5473;42.706;23.328;2022-09-09T01:51:16;0.30;;;0.30;;
10839;SDS011;5473;42.706;23.328;2022-09-09T01:53:43;0.20;;;0.20;;
10839;SDS011;5473;42.706;23.328;2022-09-09T01:56:15;0.30;;;0.30;;
10839;SDS011;5473;42.706;23.328;2022-09-09T01:58:56;0.30;;;0.30;;
10839;SDS011;5473;42.706;23.328;2022-09-09T02:01:34;0.23;;;0.23;;
10839;SDS011;5473;42.706;23.328;2022-09-09T02:04:11;0.30;;;0.30;;
10839;SDS011;5473;42.706;23.328;2022-09-09T02:06:47;0.30;;;0.30;;
10839;SDS011;5473;42.706;23.328;2022-09-09T02:09:19;0.30;;;0.30;;
10839;SDS011;5473;42.706;23.328;2022-09-09T02:11:50;0.30;;;0.30;;
10839;SDS011;5473;42.706;23.328;2022-09-09T02:14:27;0.30;;;0.30;;
10839;SDS011;5473;42.706;23.328;2022-09-09T02:16:57;0.20;;;0.20;;
10839;SDS011;5473;42.706;23.328;2022-09-09T02:19:29;0.30;;;0.30;;
10839;SDS011;5473;42.706;23.328;2022-09-09T02:22:01;0.30;;;0.30;;
10839;SDS011;5473;42.706;23.328;2022-09-09T02:24:28;0.30;;;0.30;;
10839;SDS011;5473;42.706;23.328;2022-09-09T02:26:59;0.30;;;0.30;;
10839;SDS011;5473;42.706;23.328;2022-09-09T02:29:33;0.30;;;0.30;;
10839;SDS011;5473;42.706;23.328;2022-09-09T02:32:03;0.30;;;0.30;;
10839;SDS011;5473;42.706;23.328;2022-09-09T02:34:34;0.30;;;0.30;;
10839;SDS011;5473;42.706;23.328;2022-09-09T02:37:06;0.30;;;0.30;;
10839;SDS011;5473;42.706;23.328;2022-09-09T02:39:34;0.30;;;0.30;;
10839;SDS011;5473;42.706;23.328;2022-09-09T02:42:01;0.30;;;0.30;;
10839;SDS011;5473;42.706;23.328;2022-09-09T02:44:28;0.30;;;0.30;;
10839;SDS011;5473;42.706;23.328;2022-09-09T02:47:00;0.30;;;0.30;;
10839;SDS011;5473;42.706;23.328;2022-09-09T02:49:35;0.30;;;0.30;;
10839;SDS011;5473;42.706;23.328;2022-09-09T02:52:07;0.30;;;0.30;;
10839;SDS011;5473;42.706;23.328;2022-09-09T02:54:38;0.30;;;0.30;;
10839;SDS011;5473;42.706;23.328;2022-09-09T02:57:06;0.30;;;0.30;;
10839;SDS011;5473;42.706;23.328;2022-09-09T02:59:36;0.30;;;0.30;;
10839;SDS011;5473;42.706;23.328;2022-09-09T03:02:05;0.30;;;0.30;;
10839;SDS011;5473;42.706;23.328;2022-09-09T03:04:32;0.30;;;0.30;;
10839;SDS011;5473;42.706;23.328;2022-09-09T03:06:59;0.30;;;0.30;;
10839;SDS011;5473;42.706;23.328;2022-09-09T03:09:26;0.30;;;0.30;;
10839;SDS011;5473;42.706;23.328;2022-09-09T03:11:52;0.30;;;0.30;;
10839;SDS011;5473;42.706;23.328;2022-09-09T03:14:20;0.30;;;0.30;;
10839;SDS011;5473;42.706;23.328;2022-09-09T03:16:49;0.30;;;0.30;;
10839;SDS011;5473;42.706;23.328;2022-09-09T03:19:18;0.30;;;0.30;;
10839;SDS011;5473;42.706;23.328;2022-09-09T03:21:44;0.30;;;0.30;;
10839;SDS011;5473;42.706;23.328;2022-09-09T03:24:11;0.30;;;0.30;;
10839;SDS011;5473;42.706;23.328;2022-09-09T03:26:39;0.30;;;0.30;;
10839;SDS011;5473;42.706;23.328;2022-09-09T03:29:06;0.30;;;0.30;;
10839;SDS011;5473;42.706;23.328;2022-09-09T03:31:33;0.30;;;0.30;;
10839;SDS011;5473;42.706;23.328;2022-09-09T03:34:02;0.30;;;0.30;;
10839;SDS011;5473;42.706;23.328;2022-09-09T03:36:30;0.30;;;0.30;;
10839;SDS011;5473;42.706;23.328;2022-09-09T03:38:58;0.30;;;0.30;;
10839;SDS011;5473;42.706;23.328;2022-09-09T03:41:25;0.30;;;0.30;;
10839;SDS011;5473;42.706;23.328;2022-09-09T03:43:52;0.30;;;0.30;;
10839;SDS011;5473;42.706;23.328;2022-09-09T03:46:20;0.40;;;0.40;;
10839;SDS011;5473;42.706;23.328;2022-09-09T03:48:48;0.30;;;0.30;;
10839;SDS011;5473;42.706;23.328;2022-09-09T03:51:15;0.40;;;0.40;;
10839;SDS011;5473;42.706;23.328;2022-09-09T03:53:43;0.30;;;0.30;;
10839;SDS011;5473;42.706;23.328;2022-09-09T03:56:10;0.30;;;0.30;;
10839;SDS011;5473;42.706;23.328;2022-09-09T03:58:37;0.30;;;0.30;;
10839;SDS011;5473;42.706;23.328;2022-09-09T04:01:04;0.30;;;0.30;;
10839;SDS011;5473;42.706;23.328;2022-09-09T04:03:33;0.30;;;0.30;;
10839;SDS011;5473;42.706;23.328;2022-09-09T04:06:00;0.30;;;0.30;;
10839;SDS011;5473;42.706;23.328;2022-09-09T04:08:32;0.30;;;0.30;;
10839;SDS011;5473;42.706;23.328;2022-09-09T04:11:00;0.30;;;0.30;;
10839;SDS011;5473;42.706;23.328;2022-09-09T04:13:30;0.30;;;0.30;;
10839;SDS011;5473;42.706;23.328;2022-09-09T04:15:57;0.30;;;0.30;;
10839;SDS011;5473;42.706;23.328;2022-09-09T04:18:25;0.30;;;0.30;;
10839;SDS011;5473;42.706;23.328;2022-09-09T04:20:54;0.30;;;0.30;;
10839;SDS011;5473;42.706;23.328;2022-09-09T04:23:22;0.30;;;0.30;;
10839;SDS011;5473;42.706;23.328;2022-09-09T04:25:51;0.30;;;0.30;;
10839;SDS011;5473;42.706;23.328;2022-09-09T04:28:21;0.20;;;0.20;;
10839;SDS011;5473;42.706;23.328;2022-09-09T04:30:49;0.30;;;0.30;;
10839;SDS011;5473;42.706;23.328;2022-09-09T04:33:17;0.30;;;0.30;;
10839;SDS011;5473;42.706;23.328;2022-09-09T04:35:45;0.30;;;0.30;;
10839;SDS011;5473;42.706;23.328;2022-09-09T04:38:12;0.20;;;0.20;;
10839;SDS011;5473;42.706;23.328;2022-09-09T04:40:41;0.20;;;0.20;;
10839;SDS011;5473;42.706;23.328;2022-09-09T04:43:09;0.30;;;0.30;;
10839;SDS011;5473;42.706;23.328;2022-09-09T04:45:37;0.30;;;0.30;;
10839;SDS011;5473;42.706;23.328;2022-09-09T04:48:05;0.27;;;0.27;;
10839;SDS011;5473;42.706;23.328;2022-09-09T04:50:32;0.30;;;0.30;;
10839;SDS011;5473;42.706;23.328;2022-09-09T04:52:59;0.30;;;0.30;;
10839;SDS011;5473;42.706;23.328;2022-09-09T04:55:27;0.30;;;0.30;;
10839;SDS011;5473;42.706;23.328;2022-09-09T04:57:53;0.30;;;0.30;;
10839;SDS011;5473;42.706;23.328;2022-09-09T05:00:20;0.20;;;0.20;;
10839;SDS011;5473;42.706;23.328;2022-09-09T05:02:48;0.30;;;0.30;;
10839;SDS011;5473;42.706;23.328;2022-09-09T05:05:16;0.30;;;0.30;;
10839;SDS011;5473;42.706;23.328;2022-09-09T05:07:43;0.23;;;0.23;;
10839;SDS011;5473;42.706;23.328;2022-09-09T05:10:10;0.30;;;0.30;;
10839;SDS011;5473;42.706;23.328;2022-09-09T05:12:38;0.20;;;0.20;;
10839;SDS011;5473;42.706;23.328;2022-09-09T05:15:05;0.30;;;0.30;;
10839;SDS011;5473;42.706;23.328;2022-09-09T05:17:32;0.20;;;0.20;;
10839;SDS011;5473;42.706;23.328;2022-09-09T05:20:01;0.20;;;0.20;;
10839;SDS011;5473;42.706;23.328;2022-09-09T05:22:29;0.20;;;0.20;;
10839;SDS011;5473;42.706;23.328;2022-09-09T05:24:55;0.20;;;0.20;;
10839;SDS011;5473;42.706;23.328;2022-09-09T05:27:23;0.20;;;0.20;;
10839;SDS011;5473;42.706;23.328;2022-09-09T05:29:50;0.20;;;0.20;;
10839;SDS011;5473;42.706;23.328;2022-09-09T05:32:17;0.20;;;0.20;;
10839;SDS011;5473;42.706;23.328;2022-09-09T05:34:43;0.20;;;0.20;;
10839;SDS011;5473;42.706;23.328;2022-09-09T05:37:13;0.10;;;0.10;;
10839;SDS011;5473;42.706;23.328;2022-09-09T05:39:40;0.10;;;0.10;;
10839;SDS011;5473;42.706;23.328;2022-09-09T05:42:06;0.10;;;0.10;;
10839;SDS011;5473;42.706;23.328;2022-09-09T05:44:33;0.10;;;0.10;;
10839;SDS011;5473;42.706;23.328;2022-09-09T05:47:00;0.10;;;0.10;;
10839;SDS011;5473;42.706;23.328;2022-09-09T05:49:27;0.10;;;0.10;;
10839;SDS011;5473;42.706;23.328;2022-09-09T05:51:54;0.10;;;0.10;;
10839;SDS011;5473;42.706;23.328;2022-09-09T05:54:22;0.10;;;0.10;;
10839;SDS011;5473;42.706;23.328;2022-09-09T05:56:50;0.10;;;0.10;;
10839;SDS011;5473;42.706;23.328;2022-09-09T05:59:18;0.10;;;0.10;;
10839;SDS011;5473;42.706;23.328;2022-09-09T06:01:45;0.10;;;0.10;;
10839;SDS011;5473;42.706;23.328;2022-09-09T06:04:12;0.10;;;0.10;;
10839;SDS011;5473;42.706;23.328;2022-09-09T06:06:39;0.10;;;0.10;;
10839;SDS011;5473;42.706;23.328;2022-09-09T06:09:07;0.00;;;0.00;;
10839;SDS011;5473;42.706;23.328;2022-09-09T06:11:37;0.00;;;0.00;;
10839;SDS011;5473;42.706;23.328;2022-09-09T06:14:06;0.00;;;0.00;;
10839;SDS011;5473;42.706;23.328;2022-09-09T06:16:34;0.10;;;0.10;;
10839;SDS011;5473;42.706;23.328;2022-09-09T06:19:02;0.10;;;0.10;;
10839;SDS011;5473;42.706;23.328;2022-09-09T06:21:30;0.10;;;0.10;;
10839;SDS011;5473;42.706;23.328;2022-09-09T06:24:02;0.10;;;0.10;;
10839;SDS011;5473;42.706;23.328;2022-09-09T06:26:29;0.10;;;0.10;;
10839;SDS011;5473;42.706;23.328;2022-09-09T06:28:59;0.10;;;0.10;;
10839;SDS011;5473;42.706;23.328;2022-09-09T06:31:29;0.10;;;0.10;;
10839;SDS011;5473;42.706;23.328;2022-09-09T06:33:57;0.10;;;0.10;;
10839;SDS011;5473;42.706;23.328;2022-09-09T06:36:25;0.10;;;0.10;;
10839;SDS011;5473;42.706;23.328;2022-09-09T06:38:54;0.10;;;0.10;;
10839;SDS011;5473;42.706;23.328;2022-09-09T06:41:22;0.10;;;0.10;;
10839;SDS011;5473;42.706;23.328;2022-09-09T06:43:51;0.10;;;0.10;;
10839;SDS011;5473;42.706;23.328;2022-09-09T06:46:20;0.10;;;0.10;;
10839;SDS011;5473;42.706;23.328;2022-09-09T06:48:48;0.10;;;0.10;;
10839;SDS011;5473;42.706;23.328;2022-09-09T06:51:15;0.10;;;0.10;;
10839;SDS011;5473;42.706;23.328;2022-09-09T06:53:44;0.10;;;0.10;;
10839;SDS011;5473;42.706;23.328;2022-09-09T06:56:17;0.10;;;0.10;;
10839;SDS011;5473;42.706;23.328;2022-09-09T06:58:46;0.00;;;0.00;;
10839;SDS011;5473;42.706;23.328;2022-09-09T07:01:14;0.10;;;0.10;;
10839;SDS011;5473;42.706;23.328;2022-09-09T07:03:46;0.00;;;0.00;;
10839;SDS011;5473;42.706;23.328;2022-09-09T07:06:15;0.00;;;0.00;;
10839;SDS011;5473;42.706;23.328;2022-09-09T07:08:47;0.10;;;0.10;;
10839;SDS011;5473;42.706;23.328;2022-09-09T07:11:15;0.10;;;0.10;;
10839;SDS011;5473;42.706;23.328;2022-09-09T07:13:41;0.00;;;0.00;;
10839;SDS011;5473;42.706;23.328;2022-09-09T07:16:09;0.03;;;0.03;;
10839;SDS011;5473;42.706;23.328;2022-09-09T07:18:36;0.05;;;0.05;;
10839;SDS011;5473;42.706;23.328;2022-09-09T07:21:05;0.00;;;0.00;;
10839;SDS011;5473;42.706;23.328;2022-09-09T07:23:33;0.00;;;0.00;;
10839;SDS011;5473;42.706;23.328;2022-09-09T07:26:01;0.00;;;0.00;;
10839;SDS011;5473;42.706;23.328;2022-09-09T07:28:28;0.00;;;0.00;;
10839;SDS011;5473;42.706;23.328;2022-09-09T07:30:56;0.00;;;0.00;;
10839;SDS011;5473;42.706;23.328;2022-09-09T07:33:24;0.00;;;0.00;;
10839;SDS011;5473;42.706;23.328;2022-09-09T07:35:52;0.00;;;0.00;;
10839;SDS011;5473;42.706;23.328;2022-09-09T07:38:21;0.00;;;0.00;;
10839;SDS011;5473;42.706;23.328;2022-09-09T07:40:48;0.00;;;0.00;;
10839;SDS011;5473;42.706;23.328;2022-09-09T07:43:14;0.08;;;0.08;;
10839;SDS011;5473;42.706;23.328;2022-09-09T07:45:42;0.10;;;0.10;;
10839;SDS011;5473;42.706;23.328;2022-09-09T07:48:09;0.00;;;0.00;;
10839;SDS011;5473;42.706;23.328;2022-09-09T07:50:36;0.00;;;0.00;;
10839;SDS011;5473;42.706;23.328;2022-09-09T07:53:02;0.00;;;0.00;;
10839;SDS011;5473;42.706;23.328;2022-09-09T07:55:32;0.00;;;0.00;;
10839;SDS011;5473;42.706;23.328;2022-09-09T07:57:59;0.00;;;0.00;;
10839;SDS011;5473;42.706;23.328;2022-09-09T08:00:26;0.00;;;0.00;;
10839;SDS011;5473;42.706;23.328;2022-09-09T08:02:52;0.00;;;0.00;;
10839;SDS011;5473;42.706;23.328;2022-09-09T08:05:20;0.00;;;0.00;;
10839;SDS011;5473;42.706;23.328;2022-09-09T08:07:47;0.00;;;0.00;;
10839;SDS011;5473;42.706;23.328;2022-09-09T08:10:14;0.00;;;0.00;;
10839;SDS011;5473;42.706;23.328;2022-09-09T08:12:42;0.10;;;0.10;;
10839;SDS011;5473;42.706;23.328;2022-09-09T08:15:09;0.00;;;0.00;;
10839;SDS011;5473;42.706;23.328;2022-09-09T08:17:36;0.00;;;0.00;;
10839;SDS011;5473;42.706;23.328;2022-09-09T08:20:03;0.00;;;0.00;;
10839;SDS011;5473;42.706;23.328;2022-09-09T08:22:32;0.00;;;0.00;;
10839;SDS011;5473;42.706;23.328;2022-09-09T08:24:59;0.00;;;0.00;;
10839;SDS011;5473;42.706;23.328;2022-09-09T08:27:27;0.00;;;0.00;;
10839;SDS011;5473;42.706;23.328;2022-09-09T08:29:55;0.00;;;0.00;;
10839;SDS011;5473;42.706;23.328;2022-09-09T08:32:22;0.00;;;0.00;;
10839;SDS011;5473;42.706;23.328;2022-09-09T08:34:49;0.00;;;0.00;;
10839;SDS011;5473;42.706;23.328;2022-09-09T08:37:16;0.00;;;0.00;;
10839;SDS011;5473;42.706;23.328;2022-09-09T08:39:44;0.00;;;0.00;;
10839;SDS011;5473;42.706;23.328;2022-09-09T08:42:17;0.00;;;0.00;;
10839;SDS011;5473;42.706;23.328;2022-09-09T08:47:55;0.00;;;0.00;;
10839;SDS011;5473;42.706;23.328;2022-09-09T08:50:32;0.00;;;0.00;;
10839;SDS011;5473;42.706;23.328;2022-09-09T08:53:04;0.00;;;0.00;;
10839;SDS011;5473;42.706;23.328;2022-09-09T08:55:39;0.00;;;0.00;;
10839;SDS011;5473;42.706;23.328;2022-09-09T08:58:12;0.00;;;0.00;;
10839;SDS011;5473;42.706;23.328;2022-09-09T09:00:49;0.00;;;0.00;;
10839;SDS011;5473;42.706;23.328;2022-09-09T09:03:28;0.00;;;0.00;;
10839;SDS011;5473;42.706;23.328;2022-09-09T09:06:04;0.00;;;0.00;;
10839;SDS011;5473;42.706;23.328;2022-09-09T09:08:37;0.00;;;0.00;;
10839;SDS011;5473;42.706;23.328;2022-09-09T09:11:09;0.00;;;0.00;;
10839;SDS011;5473;42.706;23.328;2022-09-09T09:13:38;0.00;;;0.00;;
10839;SDS011;5473;42.706;23.328;2022-09-09T09:16:13;0.00;;;0.00;;
10839;SDS011;5473;42.706;23.328;2022-09-09T09:18:48;0.00;;;0.00;;
10839;SDS011;5473;42.706;23.328;2022-09-09T09:21:17;0.00;;;0.00;;
10839;SDS011;5473;42.706;23.328;2022-09-09T09:23:51;0.00;;;0.00;;
10839;SDS011;5473;42.706;23.328;2022-09-09T09:26:23;0.00;;;0.00;;
10839;SDS011;5473;42.706;23.328;2022-09-09T09:28:52;0.00;;;0.00;;
10839;SDS011;5473;42.706;23.328;2022-09-09T09:31:24;0.00;;;0.00;;
10839;SDS011;5473;42.706;23.328;2022-09-09T09:33:52;0.00;;;0.00;;
10839;SDS011;5473;42.706;23.328;2022-09-09T09:36:24;0.08;;;0.08;;
10839;SDS011;5473;42.706;23.328;2022-09-09T09:39:00;0.00;;;0.00;;
10839;SDS011;5473;42.706;23.328;2022-09-09T09:41:31;0.00;;;0.00;;
10839;SDS011;5473;42.706;23.328;2022-09-09T09:44:00;0.00;;;0.00;;
10839;SDS011;5473;42.706;23.328;2022-09-09T09:46:29;0.00;;;0.00;;
10839;SDS011;5473;42.706;23.328;2022-09-09T09:48:57;0.00;;;0.00;;
10839;SDS011;5473;42.706;23.328;2022-09-09T09:51:26;0.00;;;0.00;;
10839;SDS011;5473;42.706;23.328;2022-09-09T09:54:08;0.00;;;0.00;;
10839;SDS011;5473;42.706;23.328;2022-09-09T09:56:45;0.00;;;0.00;;
10839;SDS011;5473;42.706;23.328;2022-09-09T09:59:20;0.00;;;0.00;;
10839;SDS011;5473;42.706;23.328;2022-09-09T10:01:50;0.00;;;0.00;;
10839;SDS011;5473;42.706;23.328;2022-09-09T10:04:18;0.05;;;0.05;;
10839;SDS011;5473;42.706;23.328;2022-09-09T10:06:48;0.00;;;0.00;;
10839;SDS011;5473;42.706;23.328;2022-09-09T10:09:20;0.00;;;0.00;;
10839;SDS011;5473;42.706;23.328;2022-09-09T10:11:52;0.00;;;0.00;;
10839;SDS011;5473;42.706;23.328;2022-09-09T10:14:27;0.00;;;0.00;;
10839;SDS011;5473;42.706;23.328;2022-09-09T10:17:07;0.00;;;0.00;;
10839;SDS011;5473;42.706;23.328;2022-09-09T10:19:50;0.10;;;0.10;;
10839;SDS011;5473;42.706;23.328;2022-09-09T10:22:28;0.00;;;0.00;;
10839;SDS011;5473;42.706;23.328;2022-09-09T10:28:06;0.00;;;0.00;;
10839;SDS011;5473;42.706;23.328;2022-09-09T10:30:46;0.00;;;0.00;;
10839;SDS011;5473;42.706;23.328;2022-09-09T10:33:25;0.00;;;0.00;;
10839;SDS011;5473;42.706;23.328;2022-09-09T10:35:59;0.00;;;0.00;;
10839;SDS011;5473;42.706;23.328;2022-09-09T10:38:39;0.00;;;0.00;;
10839;SDS011;5473;42.706;23.328;2022-09-09T10:41:22;0.03;;;0.03;;
10839;SDS011;5473;42.706;23.328;2022-09-09T10:44:15;0.00;;;0.00;;
10839;SDS011;5473;42.706;23.328;2022-09-09T10:47:00;0.00;;;0.00;;
10839;SDS011;5473;42.706;23.328;2022-09-09T10:49:47;0.00;;;0.00;;
10839;SDS011;5473;42.706;23.328;2022-09-09T10:52:38;0.00;;;0.00;;
10839;SDS011;5473;42.706;23.328;2022-09-09T10:55:16;0.10;;;0.10;;
10839;SDS011;5473;42.706;23.328;2022-09-09T10:57:45;0.00;;;0.00;;
10839;SDS011;5473;42.706;23.328;2022-09-09T11:00:15;0.00;;;0.00;;
10839;SDS011;5473;42.706;23.328;2022-09-09T11:02:44;0.03;;;0.03;;
10839;SDS011;5473;42.706;23.328;2022-09-09T11:05:17;0.10;;;0.10;;
10839;SDS011;5473;42.706;23.328;2022-09-09T11:07:47;0.10;;;0.10;;
10839;SDS011;5473;42.706;23.328;2022-09-09T11:10:22;0.00;;;0.00;;
10839;SDS011;5473;42.706;23.328;2022-09-09T11:12:57;0.00;;;0.00;;
10839;SDS011;5473;42.706;23.328;2022-09-09T11:15:29;0.00;;;0.00;;
10839;SDS011;5473;42.706;23.328;2022-09-09T11:18:01;0.00;;;0.00;;
10839;SDS011;5473;42.706;23.328;2022-09-09T11:20:34;0.00;;;0.00;;
10839;SDS011;5473;42.706;23.328;2022-09-09T11:23:02;0.10;;;0.10;;
10839;SDS011;5473;42.706;23.328;2022-09-09T11:25:32;0.08;;;0.08;;
10839;SDS011;5473;42.706;23.328;2022-09-09T11:28:07;0.10;;;0.10;;
10839;SDS011;5473;42.706;23.328;2022-09-09T11:30:52;0.10;;;0.10;;
10839;SDS011;5473;42.706;23.328;2022-09-09T11:33:41;0.10;;;0.10;;
10839;SDS011;5473;42.706;23.328;2022-09-09T11:36:30;0.00;;;0.00;;
10839;SDS011;5473;42.706;23.328;2022-09-09T11:42:24;0.10;;;0.10;;
10839;SDS011;5473;42.706;23.328;2022-09-09T11:44:51;0.10;;;0.10;;
10839;SDS011;5473;42.706;23.328;2022-09-09T11:47:21;0.00;;;0.00;;
10839;SDS011;5473;42.706;23.328;2022-09-09T11:49:54;0.10;;;0.10;;
10839;SDS011;5473;42.706;23.328;2022-09-09T11:52:23;0.00;;;0.00;;
10839;SDS011;5473;42.706;23.328;2022-09-09T11:55:08;0.00;;;0.00;;
10839;SDS011;5473;42.706;23.328;2022-09-09T11:57:37;0.10;;;0.10;;
10839;SDS011;5473;42.706;23.328;2022-09-09T12:00:05;0.00;;;0.00;;
10839;SDS011;5473;42.706;23.328;2022-09-09T12:02:33;0.00;;;0.00;;
10839;SDS011;5473;42.706;23.328;2022-09-09T12:05:02;0.00;;;0.00;;
10839;SDS011;5473;42.706;23.328;2022-09-09T12:07:35;0.00;;;0.00;;
10839;SDS011;5473;42.706;23.328;2022-09-09T12:10:17;0.00;;;0.00;;
10839;SDS011;5473;42.706;23.328;2022-09-09T12:12:48;0.00;;;0.00;;
10839;SDS011;5473;42.706;23.328;2022-09-09T12:15:20;0.00;;;0.00;;
10839;SDS011;5473;42.706;23.328;2022-09-09T12:17:54;0.00;;;0.00;;
10839;SDS011;5473;42.706;23.328;2022-09-09T12:20:23;0.00;;;0.00;;
10839;SDS011;5473;42.706;23.328;2022-09-09T12:22:59;0.00;;;0.00;;
10839;SDS011;5473;42.706;23.328;2022-09-09T12:25:45;0.00;;;0.00;;
10839;SDS011;5473;42.706;23.328;2022-09-09T12:31:22;0.00;;;0.00;;
10839;SDS011;5473;42.706;23.328;2022-09-09T12:33:53;0.00;;;0.00;;
10839;SDS011;5473;42.706;23.328;2022-09-09T12:36:21;0.00;;;0.00;;
10839;SDS011;5473;42.706;23.328;2022-09-09T12:38:52;0.00;;;0.00;;
10839;SDS011;5473;42.706;23.328;2022-09-09T12:41:21;0.00;;;0.00;;
10839;SDS011;5473;42.706;23.328;2022-09-09T12:43:49;0.00;;;0.00;;
10839;SDS011;5473;42.706;23.328;2022-09-09T12:46:20;0.10;;;0.10;;
10839;SDS011;5473;42.706;23.328;2022-09-09T12:48:55;0.00;;;0.00;;
10839;SDS011;5473;42.706;23.328;2022-09-09T12:51:24;0.00;;;0.00;;
10839;SDS011;5473;42.706;23.328;2022-09-09T12:53:55;0.00;;;0.00;;
10839;SDS011;5473;42.706;23.328;2022-09-09T12:56:23;0.10;;;0.10;;
10839;SDS011;5473;42.706;23.328;2022-09-09T12:58:53;0.00;;;0.00;;
10839;SDS011;5473;42.706;23.328;2022-09-09T13:01:22;0.00;;;0.00;;
10839;SDS011;5473;42.706;23.328;2022-09-09T13:03:51;0.00;;;0.00;;
10839;SDS011;5473;42.706;23.328;2022-09-09T13:06:19;0.00;;;0.00;;
10839;SDS011;5473;42.706;23.328;2022-09-09T13:08:47;0.00;;;0.00;;
10839;SDS011;5473;42.706;23.328;2022-09-09T13:11:16;0.00;;;0.00;;
10839;SDS011;5473;42.706;23.328;2022-09-09T13:13:50;0.00;;;0.00;;
10839;SDS011;5473;42.706;23.328;2022-09-09T13:16:19;0.00;;;0.00;;
10839;SDS011;5473;42.706;23.328;2022-09-09T13:18:48;0.10;;;0.10;;
10839;SDS011;5473;42.706;23.328;2022-09-09T13:21:15;0.00;;;0.00;;
10839;SDS011;5473;42.706;23.328;2022-09-09T13:23:48;0.00;;;0.00;;
10839;SDS011;5473;42.706;23.328;2022-09-09T13:26:22;0.03;;;0.03;;
10839;SDS011;5473;42.706;23.328;2022-09-09T13:28:51;0.00;;;0.00;;
10839;SDS011;5473;42.706;23.328;2022-09-09T13:31:20;0.00;;;0.00;;
10839;SDS011;5473;42.706;23.328;2022-09-09T13:33:48;0.00;;;0.00;;
10839;SDS011;5473;42.706;23.328;2022-09-09T13:36:14;0.10;;;0.10;;
10839;SDS011;5473;42.706;23.328;2022-09-09T13:38:52;0.00;;;0.00;;
10839;SDS011;5473;42.706;23.328;2022-09-09T13:41:22;0.00;;;0.00;;
10839;SDS011;5473;42.706;23.328;2022-09-09T13:43:51;0.00;;;0.00;;
10839;SDS011;5473;42.706;23.328;2022-09-09T13:46:30;0.00;;;0.00;;
10839;SDS011;5473;42.706;23.328;2022-09-09T13:49:00;0.00;;;0.00;;
10839;SDS011;5473;42.706;23.328;2022-09-09T13:51:30;0.00;;;0.00;;
10839;SDS011;5473;42.706;23.328;2022-09-09T13:54:02;0.10;;;0.10;;
10839;SDS011;5473;42.706;23.328;2022-09-09T13:56:32;0.10;;;0.10;;
10839;SDS011;5473;42.706;23.328;2022-09-09T13:59:02;0.00;;;0.00;;
10839;SDS011;5473;42.706;23.328;2022-09-09T14:01:30;0.10;;;0.10;;
10839;SDS011;5473;42.706;23.328;2022-09-09T14:03:59;0.10;;;0.10;;
10839;SDS011;5473;42.706;23.328;2022-09-09T14:06:26;0.10;;;0.10;;
10839;SDS011;5473;42.706;23.328;2022-09-09T14:08:54;0.10;;;0.10;;
10839;SDS011;5473;42.706;23.328;2022-09-09T14:11:21;0.00;;;0.00;;
10839;SDS011;5473;42.706;23.328;2022-09-09T14:13:49;0.00;;;0.00;;
10839;SDS011;5473;42.706;23.328;2022-09-09T14:16:16;0.00;;;0.00;;
10839;SDS011;5473;42.706;23.328;2022-09-09T14:18:44;0.10;;;0.10;;
10839;SDS011;5473;42.706;23.328;2022-09-09T14:21:10;0.10;;;0.10;;
10839;SDS011;5473;42.706;23.328;2022-09-09T14:23:38;0.00;;;0.00;;
10839;SDS011;5473;42.706;23.328;2022-09-09T14:26:05;0.00;;;0.00;;
10839;SDS011;5473;42.706;23.328;2022-09-09T14:28:33;0.00;;;0.00;;
10839;SDS011;5473;42.706;23.328;2022-09-09T14:31:01;0.00;;;0.00;;
10839;SDS011;5473;42.706;23.328;2022-09-09T14:33:30;0.00;;;0.00;;
10839;SDS011;5473;42.706;23.328;2022-09-09T14:35:58;0.10;;;0.10;;
10839;SDS011;5473;42.706;23.328;2022-09-09T14:38:28;0.10;;;0.10;;
10839;SDS011;5473;42.706;23.328;2022-09-09T14:40:55;0.10;;;0.10;;
10839;SDS011;5473;42.706;23.328;2022-09-09T14:43:23;0.00;;;0.00;;
10839;SDS011;5473;42.706;23.328;2022-09-09T14:45:51;0.10;;;0.10;;
10839;SDS011;5473;42.706;23.328;2022-09-09T14:48:19;0.00;;;0.00;;
10839;SDS011;5473;42.706;23.328;2022-09-09T14:50:51;0.00;;;0.00;;
10839;SDS011;5473;42.706;23.328;2022-09-09T14:53:18;0.10;;;0.10;;
10839;SDS011;5473;42.706;23.328;2022-09-09T14:55:46;0.10;;;0.10;;
10839;SDS011;5473;42.706;23.328;2022-09-09T14:58:14;0.00;;;0.00;;
10839;SDS011;5473;42.706;23.328;2022-09-09T15:00:40;0.00;;;0.00;;
10839;SDS011;5473;42.706;23.328;2022-09-09T15:03:07;0.10;;;0.10;;
10839;SDS011;5473;42.706;23.328;2022-09-09T15:05:37;0.10;;;0.10;;
10839;SDS011;5473;42.706;23.328;2022-09-09T15:08:03;0.10;;;0.10;;
10839;SDS011;5473;42.706;23.328;2022-09-09T15:10:30;0.10;;;0.10;;
10839;SDS011;5473;42.706;23.328;2022-09-09T15:12:58;0.10;;;0.10;;
10839;SDS011;5473;42.706;23.328;2022-09-09T15:15:24;0.10;;;0.10;;
10839;SDS011;5473;42.706;23.328;2022-09-09T15:17:51;0.10;;;0.10;;
10839;SDS011;5473;42.706;23.328;2022-09-09T15:20:18;0.10;;;0.10;;